Latest Coastal Weather Observations for Devonport Airport

IDT60701

Issued at 5:02 am EST Friday 20 April 2018 (issued every 10 minutes, with the page automatically refreshed every 10 minutes)

About coastal observations | Map of coastal stations | Coastal observations for TAS | Marine services | Other Formats
Station Details ID: 091126 Name: DEVONPORT AIRPORT Lat: -41.17 Lon: 146.43 Height: 8.0 m
Data from the previous 72 hours. | See also: Recent months at Devonport Airport
Date/Time
EST
Temp
°C
Wind Pressure Rain since
9am
mm
Weather Cloud Vis
km
Sea
Height
m
Swell
Dir  Spd
kts
Gust
kts
hPa Trend Height
m
Period
s
Dir
20/05:00am 10.1 SSE 9 11 1022.5 - 0.0 - Cloudy 10 - - - -
20/04:30am 9.9 SSE 9 11 1022.3 - 0.0 - Cloudy 10 - - - -
20/04:00am 9.7 SSE 10 13 1022.2 - 0.0 - Cloudy 10 - - - -
20/03:30am 9.6 SSE 9 11 1022.3 - 0.0 - Cloudy 10 - - - -
20/03:00am 9.5 S 10 12 1022.4 - 0.0 - Cloudy 10 - - - -
20/02:30am 9.0 SSE 10 12 1022.5 - 0.0 - Cloudy 10 - - - -
20/02:00am 8.7 S 7 9 1022.6 - 0.0 - Cloudy 10 - - - -
20/01:30am 7.8 SSE 9 11 1022.2 - 0.0 - Partly cloudy 10 - - - -
20/01:00am 7.6 SSE 7 10 1022.2 - 0.0 - - 10 - - - -
20/12:30am 7.9 SSE 8 10 1022.0 - 0.0 - - 10 - - - -
20/12:00am 7.5 S 9 11 1021.8 - 0.0 - - 10 - - - -
 
Date/Time
EST
Temp
°C
Wind Pressure Rain since
9am
mm
Weather Cloud Vis
km
Sea
Height
m
Swell
Dir  Spd
kts
Gust
kts
hPa Trend Height
m
Period
s
Dir
19/11:30pm 8.4 SSE 9 11 1021.7 - 0.0 - - 10 - - - -
19/11:00pm 8.6 SSE 7 9 1021.6 - 0.0 - - 10 - - - -
19/10:30pm 9.1 SSE 9 10 1021.6 - 0.0 - - 10 - - - -
19/10:00pm 8.5 SSE 7 9 1021.6 - 0.0 - - 10 - - - -
19/09:30pm 8.9 SSE 7 9 1021.6 - 0.0 - - 10 - - - -
19/09:00pm 8.3 SSE 7 8 1021.2 - 0.0 - - 10 - - - -
19/08:30pm 9.2 SSE 7 8 1021.0 - 0.0 - - 10 - - - -
19/08:00pm 8.9 SSE 6 8 1020.7 - 0.0 - - 10 - - - -
19/07:30pm 9.0 S 6 7 1020.3 - 0.0 - - 10 - - - -
19/07:00pm 9.6 ESE 4 5 1020.0 - 0.0 - - 10 - - - -
19/06:30pm 10.2 ESE 4 5 1020.0 - 0.0 - - 10 - - - -
19/06:00pm 10.9 ENE 4 4 1019.6 - 0.0 - Partly cloudy 10 - - - -
19/05:30pm 12.5 NNE 4 5 1019.5 - 0.0 - - 10 - - - -
19/05:00pm 13.9 NNE 5 6 1019.2 - 0.0 - - 10 - - - -
19/04:30pm 14.4 NNE 5 7 1019.1 - 0.0 - - 10 - - - -
19/04:00pm 14.7 NNE 4 6 1019.0 - 0.0 - - 10 - - - -
19/03:30pm 14.7 NNW 5 6 1018.9 - 0.0 - - 10 - - - -
19/03:00pm 14.8 NNW 6 8 1018.9 - 0.0 - - 10 - - - -
19/02:30pm 15.5 NNW 4 7 1018.6 - 0.0 - - 10 - - - -
19/02:00pm 15.1 N 5 7 1018.7 - 0.0 - - 10 - - - -
19/01:30pm 15.1 NNW 6 8 1018.8 - 0.0 - - 10 - - - -
19/01:00pm 14.8 N 5 7 1018.9 - 0.0 - - 10 - - - -
19/12:30pm 14.8 NNW 4 7 1019.2 - 0.0 - - 10 - - - -
19/12:00pm 14.2 N 4 5 1019.5 - 0.0 - Mostly cloudy 10 - - - -
19/11:30am 14.5 N 5 8 1019.5 - 0.0 - - 10 - - - -
19/11:00am 13.5 N 5 7 1019.6 - 0.0 - - 10 - - - -
19/10:30am 14.0 NNE 3 5 1019.6 - 0.0 - - 10 - - - -
19/10:00am 12.9 SSE 3 5 1019.8 - 0.0 - - 10 - - - -
19/09:30am 11.3 S 6 7 1019.9 - 0.0 - - 10 - - - -
19/09:00am 9.8 S 5 6 1020.0 - 0.0 - Mostly clear 10 - - - -
19/08:30am 8.2 SSE 7 8 1019.9 - 0.0 - Partly cloudy 10 - - - -
19/08:00am 8.4 S 6 8 1019.7 - 0.0 - Cloudy 10 - - - -
19/07:30am 8.8 SSE 3 4 1019.3 - 0.0 - Cloudy 10 - - - -
19/07:00am 8.3 S 6 7 1019.0 - 0.0 - Cloudy 10 - - - -
19/06:30am 8.2 S 7 9 1019.0 - 0.0 - Cloudy 10 - - - -
19/06:00am 8.1 S 7 9 1018.9 - 0.0 - Cloudy 10 - - - -
19/05:30am 8.0 SSE 8 9 1018.8 - 0.0 - Partly cloudy 10 - - - -
19/05:00am 6.9 SSE 7 9 1019.0 - 0.0 - Partly cloudy 10 - - - -
19/04:30am 6.6 S 8 9 1019.0 - 0.0 - - 10 - - - -
19/04:00am 6.4 S 8 9 1018.9 - 0.0 - - 10 - - - -
19/03:30am 6.9 SSE 7 9 1019.0 - 0.0 - Partly cloudy 10 - - - -
19/03:00am 7.3 S 6 8 1019.2 - 0.0 - Mostly clear 10 - - - -
19/02:30am 7.6 S 7 8 1019.7 - 0.0 - Partly cloudy 10 - - - -
19/02:00am 8.3 S 6 7 1020.0 - 0.0 - Cloudy 10 - - - -
19/01:30am 8.3 SSE 5 7 1020.2 - 0.0 - Cloudy 10 - - - -
19/01:00am 8.3 S 7 8 1020.5 - 0.0 - Partly cloudy 10 - - - -
19/12:30am 8.3 S 7 8 1020.7 - 0.0 - Partly cloudy 10 - - - -
19/12:00am 8.6 S 6 8 1020.9 - 0.0 - Mostly cloudy 10 - - - -
 
Date/Time
EST
Temp
°C
Wind Pressure Rain since
9am
mm
Weather Cloud Vis
km
Sea
Height
m
Swell
Dir  Spd
kts
Gust
kts
hPa Trend Height
m
Period
s
Dir
18/11:30pm 9.0 S 7 8 1020.9 - 0.0 - Cloudy 10 - - - -
18/11:00pm 8.9 SSE 6 7 1021.1 - 0.0 - Cloudy 10 - - - -
18/10:30pm 8.7 S 6 8 1021.3 - 0.0 - Cloudy 10 - - - -
18/10:00pm 7.8 SSE 7 8 1021.3 - 0.0 - Partly cloudy 10 - - - -
18/09:30pm 7.1 SSE 6 7 1021.2 - 0.0 - - 10 - - - -
18/09:00pm 7.0 SSE 6 7 1021.3 - 0.0 - Partly cloudy 10 - - - -
18/08:30pm 7.0 SE 5 6 1021.3 - 0.0 - - 10 - - - -
18/08:00pm 7.3 SSE 6 7 1021.3 - 0.0 - - 10 - - - -
18/07:30pm 7.6 SSE 5 6 1021.5 - 0.0 - - 10 - - - -
18/07:00pm 7.8 SSE 4 5 1021.4 - 0.0 - - 10 - - - -
18/06:30pm 9.5 SW 1 3 1021.3 - 0.0 - - 10 - - - -
18/06:00pm 11.1 NW 6 7 1021.2 - 0.0 - - 10 - - - -
18/05:30pm 11.2 NW 5 6 1021.2 - 0.0 - - 10 - - - -
18/05:00pm 12.0 NW 5 7 1021.1 - 0.0 - - 10 - - - -
18/04:30pm 12.7 NW 5 7 1021.1 - 0.0 - - 10 - - - -
18/04:00pm 13.1 NNW 5 9 1021.3 - 0.0 - - 10 - - - -
18/03:30pm 13.2 NNW 6 9 1021.3 - 0.0 - - 10 - - - -
18/03:00pm 13.1 NNW 7 9 1021.6 - 0.0 - - 10 - - - -
18/02:30pm 13.4 NNW 7 10 1021.7 - 0.0 - - 10 - - - -
18/02:00pm 13.2 NW 6 8 1021.9 - 0.0 - - 10 - - - -
18/01:30pm 13.3 NNW 6 8 1022.3 - 0.0 - - 10 - - - -
18/01:00pm 12.7 NNW 6 9 1022.7 - 0.0 - - 10 - - - -
18/12:30pm 12.8 N 7 9 1023.1 - 0.0 - - 10 - - - -
18/12:00pm 12.8 N 6 9 1023.3 - 0.0 - - 10 - - - -
18/11:30am 13.0 NNW 6 8 1023.7 - 0.0 - - 10 - - - -
18/11:00am 12.9 N 5 7 1023.9 - 0.0 - - 10 - - - -
18/10:30am 13.2 N 5 7 1024.0 - 0.0 - - 10 - - - -
18/10:00am 12.4 S 4 6 1024.3 - 0.0 - - 10 - - - -
18/09:30am 10.5 S 6 8 1024.4 - 0.0 - - 10 - - - -
18/09:00am 9.2 S 7 9 1024.4 - 0.0 - - 10 - - - -
18/08:30am 7.9 S 8 10 1024.5 - 0.0 - - 10 - - - -
18/08:00am 6.5 SSE 9 11 1024.3 - 0.0 - - 10 - - - -
18/07:30am 5.2 SSE 10 12 1024.2 - 0.0 - - 10 - - - -
18/07:00am 4.7 SSE 11 13 1023.8 - 0.0 - - 10 - - - -
18/06:30am 4.7 SSE 10 14 1024.0 - 0.0 - - 10 - - - -
18/06:00am 4.9 SSE 11 13 1023.7 - 0.0 - - 10 - - - -
18/05:30am 4.1 S 6 8 1023.8 - 0.0 - - 10 - - - -
18/05:00am 4.7 SSE 9 10 1023.8 - 0.0 - - 10 - - - -
18/04:30am 4.0 SSE 10 12 1023.7 - 0.0 - - 10 - - - -
18/04:00am 4.2 SSE 10 12 1023.8 - 0.0 - - 10 - - - -
18/03:30am 4.3 SSE 8 10 1023.7 - 0.0 - - 10 - - - -
18/03:00am 4.3 S 6 8 1023.9 - 0.0 - - 10 - - - -
18/02:30am 4.4 S 5 6 1024.0 - 0.0 - - 10 - - - -
18/02:00am 5.1 SSE 9 10 1024.2 - 0.0 - - 10 - - - -
18/01:30am 5.0 SSE 7 9 1024.3 - 0.0 - - 10 - - - -
18/01:00am 4.5 SSE 7 9 1024.2 - 0.0 - - 10 - - - -
18/12:30am 5.0 S 6 7 1024.4 - 0.0 - - 10 - - - -
18/12:00am 5.3 S 5 5 1024.4 - 0.0 - - 10 - - - -
 
Date/Time
EST
Temp
°C
Wind Pressure Rain since
9am
mm
Weather Cloud Vis
km
Sea
Height
m
Swell
Dir  Spd
kts
Gust
kts
hPa Trend Height
m
Period
s
Dir
17/11:30pm 4.2 SSE 5 5 1024.4 - 0.0 - - 10 - - - -
17/11:00pm 4.4 SE 3 4 1024.6 - 0.0 - - 10 - - - -
17/10:30pm 5.0 SE 2 4 1024.6 - 0.0 - - 10 - - - -
17/10:00pm 5.9 SSE 6 7 1024.6 - 0.0 - - 10 - - - -
17/09:30pm 5.7 S 4 5 1024.6 - 0.0 - - 10 - - - -
17/09:00pm 7.0 S 3 5 1024.6 - 0.0 - - 10 - - - -
17/08:30pm 7.7 SW 4 6 1024.6 - 0.0 - - 10 - - - -
17/08:00pm 9.3 WSW 7 9 1024.4 - 0.0 - - 10 - - - -
17/07:30pm 8.6 WSW 7 9 1024.2 - 0.0 - - 10 - - - -
17/07:00pm 8.8 WSW 7 7 1023.7 - 0.0 - - 10 - - - -
17/06:30pm 10.8 WSW 8 10 1023.1 - 0.0 - - 10 - - - -
17/06:00pm 12.1 SW 10 14 1022.7 - 0.0 - - 10 - - - -
17/05:30pm 12.6 SW 9 13 1022.5 - 0.0 - - 10 - - - -
17/05:00pm 13.9 WSW 8 11 1022.2 - 0.0 - - 10 - - - -
17/04:30pm 15.0 SW 11 16 1022.0 - 0.0 - - 10 - - - -
17/04:00pm 15.4 SW 15 21 1021.8 - 0.0 - - 10 - - - -
17/03:30pm 15.8 WSW 13 18 1021.6 - 0.0 - - 10 - - - -
17/03:00pm 15.9 WSW 15 20 1021.6 - 0.0 - - 10 - - - -
17/02:30pm 16.0 SW 12 17 1021.6 - 0.0 - - 10 - - - -
17/02:00pm 15.7 SW 15 20 1021.5 - 0.0 - - 10 - - - -
17/01:30pm 15.7 WSW 12 15 1021.5 - 0.0 - - 10 - - - -
17/01:00pm 15.8 SW 10 15 1021.6 - 0.0 - - 10 - - - -
17/12:30pm 15.1 SW 10 15 1021.9 - 0.0 - - 10 - - - -
17/12:00pm 14.9 SW 11 15 1022.2 - 0.0 - Mostly clear 10 - - - -
17/11:30am 15.0 SSW 8 13 1022.3 - 0.0 - Partly cloudy 10 - - - -
17/11:00am 14.3 SW 11 18 1022.1 - 0.0 - - 10 - - - -
17/10:30am 14.3 SW 10 14 1022.1 - 0.0 - - 10 - - - -
17/10:00am 13.6 SW 13 17 1022.0 - 0.0 - - 10 - - - -
17/09:30am 13.3 WSW 11 15 1022.0 - 0.0 - - 10 - - - -
17/09:00am 12.5 WSW 12 16 1021.6 - 0.0 - - 10 - - - -
17/08:30am 12.1 WSW 9 11 1021.2 - 0.0 - - 10 - - - -
17/08:00am 10.7 WSW 9 12 1020.6 - 0.0 - - 10 - - - -
17/07:30am 9.4 WSW 11 13 1019.7 - 0.0 - - 10 - - - -
17/07:00am 9.4 W 11 13 1019.1 - 0.0 - - 10 - - - -
17/06:30am 9.5 W 10 13 1018.7 - 0.0 - - 10 - - - -
17/06:00am 9.9 WSW 8 11 1018.0 - 0.0 - - 10 - - - -
17/05:30am 10.5 WSW 14 20 1017.3 - 0.0 - - 10 - - - -

Other Formats:

Comma delimited format used in spreadsheet applications
http://www.bom.gov.au/fwo/IDT60701/IDT60701.95960.axf

JavaScript Object Notation format (JSON) in row-major order
http://www.bom.gov.au/fwo/IDT60701/IDT60701.95960.json